ココス (キーリング) 諸島 の空港の天気 - METARとTAF

ココス島国際空港 ( YPCC / CCK ) - ココス諸島 ココス (キーリング) 諸島
飛行場実況気象(Metar)
観測時間05/27 05:30 CCT (05/26 23:00 UTC)
風向・風速東 5m/s
視程10km以上
天気現象
全天の4割程度の雲 雲底高度 820m
気温25℃
湿度78%
気圧1013hPa
METARYPCC 262300Z AUTO 10010KT 9999 // SCT027 25/21 Q1013
過去の天気等 Google飛行場航空写真 Wunderground天気予報

過去48時間のMETAR

飛行場予報(TAF)
発表時間: 5/26 23:28 CCT (5/26 16:58 UTC)
予報対象時間: 27日0時 CCT ~ 28日0時 CCT
風向・風速南東 6m/s
視程10km以上
全天の4割程度の雲 雲底高度 760m
TAF YPCC 261658Z 2618/2718 13012KT 9999 SCT025